Center Tuftonboro, New Hampshire
Current Conditions -  °F | °C
As of 11:15 AM on Saturday 25 Oct 2014 (Local Time) from KLCI Reporting Station
Clear Clear  
Wind Chill: 57°   Ceiling: Unl
Heat Index: 57°   Visibility: 10mi
Dew Point: 36°   Wind: 7mph
Humidity: 44%   Direction: 280°W
Pressure: 29.66"   Gusts: NA
Location:  43.65°N, 71.25°W
Report Text: KLCI 251515Z AUTO 28006KT 10SM CLR 14/02 A2966 RMK AO1
Loading
Personal Weather Stations






























Interactive Weather Map
Tropical Storm Tracking
New forecast layout! Learn more

10-Day Weather Forecast

Advertisements
Track Severe Weather on mobile